Time;durP1;ratioP1;P1;durP2;ratioP2;P2;SDS_P1;SDS_P2;PMS_P1;PMS_P2;Temp;Humidity;BMP_temperature;BMP_pressure;BME280_temperature;BME280_humidity;BME280_pressure;Samples;Min_cycle;Max_cycle;Signal;HPM_P1;HPM_P2
2022/12/09 00:02:23;;;;;;;399.42;40.35;;;-0.10;99.90;;;-0.74;100.00;96735.84;5044965;28;20049;-72
2022/12/09 00:04:50;;;;;;;76.93;24.90;;;-0.10;99.90;;;-0.71;100.00;96726.47;5044618;28;20060;-72
2022/12/09 00:07:17;;;;;;;53.00;22.25;;;-0.10;99.90;;;-0.69;100.00;96722.16;5042495;28;20668;-72
2022/12/09 00:09:44;;;;;;;47.10;21.52;;;-0.10;99.90;;;-0.45;100.00;96720.19;5042572;28;20092;-72
2022/12/09 00:12:11;;;;;;;48.38;21.95;;;0.00;99.90;;;-0.44;100.00;96725.25;5043921;28;20049;-72
2022/12/09 00:14:38;;;;;;;48.92;20.83;;;0.10;99.90;;;-0.34;100.00;96726.00;5044746;28;20099;-72
2022/12/09 00:17:05;;;;;;;108.57;23.20;;;0.10;99.90;;;-0.55;100.00;96724.53;5040666;28;20048;-72
2022/12/09 00:19:34;;;;;;;441.77;39.80;;;0.10;99.90;;;-1.09;100.00;96717.53;5044056;28;20517;-72
2022/12/09 00:22:01;;;;;;;387.85;37.53;;;0.00;99.90;;;-1.06;100.00;96722.59;5042144;28;20041;-72
2022/12/09 00:24:28;;;;;;;79.57;20.88;;;0.00;99.90;;;-0.78;100.00;96726.53;5044776;28;20056;-72
2022/12/09 00:26:55;;;;;;;91.05;21.38;;;-0.10;99.90;;;-0.74;100.00;96720.56;5042229;28;20143;-71
2022/12/09 00:29:22;;;;;;;84.35;21.38;;;-0.10;99.90;;;-0.65;100.00;96718.72;5040452;28;20553;-72
2022/12/09 00:31:49;;;;;;;271.95;30.85;;;0.00;99.90;;;-0.91;100.00;96725.84;5046024;28;20045;-72
2022/12/09 00:34:16;;;;;;;393.75;37.25;;;0.00;99.90;;;-1.09;100.00;96717.53;5044322;28;20045;-72
2022/12/09 00:36:44;;;;;;;505.58;42.47;;;0.00;99.90;;;-1.10;100.00;96722.63;5042637;28;20075;-72
2022/12/09 00:39:11;;;;;;;451.30;40.30;;;0.00;99.90;;;-1.07;100.00;96714.97;5045507;28;20048;-72
2022/12/09 00:41:38;;;;;;;82.57;19.83;;;0.00;99.90;;;-0.81;100.00;96719.78;5057258;28;20041;-71
2022/12/09 00:44:06;;;;;;;203.13;25.98;;;0.00;99.90;;;-0.58;100.00;96716.13;5041830;28;20047;-72
2022/12/09 00:46:33;;;;;;;83.95;21.40;;;0.00;99.90;;;-0.65;100.00;96716.19;5040771;28;20472;-72
2022/12/09 00:49:02;;;;;;;304.30;31.83;;;0.00;99.90;;;-0.62;100.00;96715.28;5045104;28;20095;-73
2022/12/09 00:51:29;;;;;;;392.65;36.72;;;0.10;99.90;;;-0.74;100.00;96708.66;5042291;28;20055;-72
2022/12/09 00:53:56;;;;;;;42.40;19.85;;;0.10;99.90;;;-0.45;100.00;96702.34;5045242;28;20079;-72
2022/12/09 00:56:27;;;;;;;136.25;25.60;;;0.10;99.90;;;-0.51;100.00;96704.97;5045781;28;20383;-72
2022/12/09 00:58:56;;;;;;;58.40;20.23;;;0.10;99.90;;;-0.38;100.00;96693.75;5038950;28;20102;-72
2022/12/09 01:01:24;;;;;;;206.05;30.48;;;0.20;99.90;;;-0.50;100.00;96697.31;5044960;28;20490;-72
2022/12/09 01:03:51;;;;;;;174.52;29.55;;;0.10;99.90;;;-0.66;100.00;96703.47;5044139;28;20478;-72
2022/12/09 01:06:22;;;;;;;269.63;39.53;;;0.10;99.90;;;-0.65;100.00;96703.44;5043821;28;20080;-72
2022/12/09 01:08:50;;;;;;;242.30;38.17;;;0.00;99.90;;;-0.74;100.00;96702.72;5042794;28;20055;-72
2022/12/09 01:11:25;;;;;;;61.45;21.52;;;0.00;99.90;;;-0.75;100.00;96694.22;5040965;28;20111;-72
2022/12/09 01:13:53;;;;;;;603.25;52.70;;;0.00;99.90;;;-1.21;100.00;96707.47;5045751;28;20098;-72
2022/12/09 01:16:25;;;;;;;388.48;41.03;;;-0.10;99.90;;;-1.40;100.00;96690.69;5041730;28;20434;-72
2022/12/09 01:18:59;;;;;;;228.88;28.55;;;-0.20;99.90;;;-1.39;100.00;96700.00;5042040;28;20107;-72
2022/12/09 01:21:28;;;;;;;216.55;27.58;;;-0.20;99.90;;;-1.21;100.00;96694.72;5043902;28;20462;-72
2022/12/09 01:23:56;;;;;;;151.77;23.90;;;-0.30;99.90;;;-1.16;100.00;96697.25;5046182;28;20423;-72
2022/12/09 01:26:23;;;;;;;335.48;32.40;;;-0.30;99.90;;;-1.39;100.00;96702.56;5041338;28;20053;-72
2022/12/09 01:28:51;;;;;;;381.30;30.02;;;-0.40;99.90;;;-1.69;100.00;96694.34;5045670;28;20057;-72
2022/12/09 01:31:22;;;;;;;60.28;16.70;;;-0.40;99.90;;;-1.24;100.00;96694.78;5044496;28;20053;-72
2022/12/09 01:33:50;;;;;;;92.65;19.25;;;-0.40;99.90;;;-1.06;100.00;96693.72;5046216;28;20053;-72
2022/12/09 01:36:25;;;;;;;286.95;29.02;;;-0.40;99.90;;;-1.10;100.00;96694.63;5061331;28;20053;-72
2022/12/09 01:38:53;;;;;;;241.25;23.50;;;-0.40;99.90;;;-1.27;100.00;96694.81;5044595;28;20132;-72
2022/12/09 01:41:21;;;;;;;83.75;16.33;;;-0.40;99.90;;;-1.28;100.00;96691.44;5042665;28;20045;-72
2022/12/09 01:44:13;;;;;;;388.38;37.45;;;-0.40;99.90;;;-1.57;100.00;96694.25;5046061;28;20512;-72
2022/12/09 01:46:41;;;;;;;408.38;38.03;;;-0.50;99.90;;;-1.84;100.00;96695.31;5044375;28;20064;-72
2022/12/09 01:49:13;;;;;;;156.10;20.48;;;;;;;-1.59;100.00;96683.22;5044731;28;20479;-72
2022/12/09 01:51:43;;;;;;;138.50;22.25;;;-0.70;99.90;;;-1.66;100.00;96683.31;5041919;28;20064;-72
2022/12/09 01:54:10;;;;;;;312.52;29.58;;;-0.80;99.90;;;-1.95;100.00;96680.13;5044973;28;20518;-72
2022/12/09 01:56:39;;;;;;;392.00;36.45;;;-0.80;99.90;;;-2.16;100.00;96680.31;5043205;28;20056;-72
2022/12/09 01:59:10;;;;;;;298.83;27.95;;;-0.80;99.90;;;-2.07;100.00;96682.78;5044374;28;20071;-72
2022/12/09 02:01:39;;;;;;;136.18;18.15;;;-0.90;99.90;;;-1.88;100.00;96680.94;5039325;28;20124;-72
2022/12/09 02:04:06;;;;;;;46.03;15.50;;;-0.90;99.90;;;-1.57;100.00;96684.06;5040902;28;20151;-73
2022/12/09 02:06:40;;;;;;;44.28;13.02;;;-0.90;99.90;;;-1.53;100.00;96672.13;5040739;28;20805;-73
2022/12/09 02:09:07;;;;;;;46.17;12.60;;;-0.80;99.90;;;-1.39;100.00;96672.00;5045225;28;20049;-72
2022/12/09 02:12:06;;;;;;;306.88;26.52;;;-0.80;99.90;;;-1.93;100.00;96667.41;5040883;28;20568;-72
2022/12/09 02:14:39;;;;;;;80.22;15.23;;;-0.80;99.90;;;-1.95;100.00;96675.03;5058660;28;20055;-72
2022/12/09 02:17:40;;;;;;;231.32;20.15;;;-0.90;99.90;;;-2.15;100.00;96664.19;5057186;28;20084;-73
2022/12/09 02:20:39;;;;;;;266.90;25.08;;;-1.00;99.90;;;-2.39;100.00;96665.22;5040885;28;20060;-72
2022/12/09 02:23:37;;;;;;;154.43;16.05;;;-1.00;99.90;;;-2.46;100.00;96659.31;5045931;28;20099;-72
2022/12/09 02:26:23;;;;;;;284.95;24.35;;;-1.10;99.90;;;-2.52;100.00;96659.34;5049884;28;20051;-72
2022/12/09 02:29:35;;;;;;;365.33;25.60;;;-1.20;99.90;;;-2.72;100.00;96659.44;5050500;28;20045;-72
2022/12/09 02:32:39;;;;;;;288.73;25.75;;;-1.30;99.90;;;-2.87;100.00;96657.84;5050032;28;20053;-73
2022/12/09 02:35:41;;;;;;;234.73;24.65;;;-1.40;99.90;;;-2.79;100.00;96653.53;5065874;28;20056;-72
2022/12/09 02:38:15;;;;;;;181.32;21.63;;;-1.40;99.90;;;-2.70;100.00;96647.59;5044998;28;20045;-72
2022/12/09 02:41:05;;;;;;;236.77;21.45;;;-1.50;99.90;;;-2.90;100.00;96644.31;5050408;28;20049;-72
2022/12/09 02:43:38;;;;;;;250.93;21.23;;;-1.50;99.90;;;-2.88;100.00;96634.97;5050212;28;20491;-72
2022/12/09 02:46:19;;;;;;;68.75;14.48;;;-1.50;99.90;;;-2.62;100.00;96633.16;5048942;28;20052;-71
2022/12/09 02:48:57;;;;;;;178.30;16.55;;;-1.50;99.90;;;-2.60;100.00;96626.38;5049754;28;20056;-72
2022/12/09 02:51:29;;;;;;;48.28;12.45;;;-1.50;99.90;;;-2.37;100.00;96617.75;5062904;28;20160;-72
2022/12/09 02:54:04;;;;;;;24.17;11.43;;;-1.40;99.90;;;-2.13;100.00;96616.72;5049421;28;20044;-73
2022/12/09 02:56:32;;;;;;;34.15;11.45;;;-1.30;99.90;;;-2.14;100.00;96617.59;5049904;28;20049;-72
2022/12/09 02:58:59;;;;;;;33.47;12.18;;;-1.30;99.90;;;-1.94;100.00;96610.63;5047404;28;20045;-72
2022/12/09 03:02:05;;;;;;;103.20;14.55;;;-1.20;99.90;;;-1.86;100.00;96615.63;5042176;28;20388;-72
2022/12/09 03:04:32;;;;;;;66.88;15.45;;;-1.20;99.90;;;-2.10;100.00;96606.50;5051559;28;20147;-72
2022/12/09 03:07:36;;;;;;;126.53;15.65;;;-1.20;99.90;;;-2.23;100.00;96610.03;5046297;28;20053;-72
2022/12/09 03:10:15;;;;;;;;;;;-1.20;99.90;;;-2.46;100.00;96603.41;5049713;28;20053;-73
2022/12/09 03:13:03;;;;;;;67.15;12.90;;;-1.30;99.90;;;-2.19;100.00;96602.38;5072331;28;20444;-73
2022/12/09 03:15:34;;;;;;;85.20;15.38;;;-1.30;99.90;;;-2.25;100.00;96604.09;5055633;28;20056;-73
2022/12/09 03:18:06;;;;;;;245.20;22.80;;;-1.30;99.90;;;-2.31;100.00;96605.81;5055051;28;20060;-73
2022/12/09 03:20:38;;;;;;;29.73;13.02;;;-1.20;99.90;;;-2.16;100.00;96607.41;5047919;28;20048;-73
2022/12/09 03:23:09;;;;;;;224.57;21.87;;;-1.30;99.90;;;-2.48;100.00;96602.56;5054252;28;20041;-72
2022/12/09 03:25:45;;;;;;;58.90;17.38;;;-1.30;99.90;;;-2.27;100.00;96598.19;5063647;28;20360;-72
2022/12/09 03:28:29;;;;;;;49.88;14.65;;;-1.30;99.90;;;-2.18;100.00;96598.13;5049424;28;20142;-72
2022/12/09 03:31:02;;;;;;;37.00;13.90;;;-1.30;99.90;;;-1.90;100.00;96594.47;5046916;28;20324;-72
2022/12/09 03:33:30;;;;;;;35.67;13.63;;;-1.30;99.90;;;-1.83;100.00;96589.31;5048952;28;20053;-72
2022/12/09 03:36:05;;;;;;;27.90;13.50;;;-1.20;99.90;;;-1.69;100.00;96582.38;5046869;28;20049;-72
2022/12/09 03:38:37;;;;;;;31.30;14.38;;;-1.10;99.90;;;-1.62;100.00;96581.50;5046067;28;20049;-72
2022/12/09 03:41:29;;;;;;;40.05;15.18;;;-1.10;99.90;;;-1.95;100.00;96585.19;5058716;28;20044;-72
2022/12/09 03:44:19;;;;;;;91.05;18.90;;;-1.10;99.90;;;-2.07;100.00;96576.00;5045094;28;20045;-72
2022/12/09 03:46:47;;;;;;;39.95;14.10;;;-1.20;99.90;;;-2.04;100.00;96575.94;5045303;28;20581;-72
2022/12/09 03:49:14;;;;;;;76.82;16.58;;;-1.30;99.90;;;-1.85;100.00;96576.59;5045580;28;20124;-72
2022/12/09 03:52:16;;;;;;;81.60;17.17;;;-1.30;99.90;;;-1.83;100.00;96568.97;5044521;28;20057;-73
2022/12/09 03:54:47;;;;;;;25.83;11.82;;;-1.40;99.90;;;-2.00;100.00;96574.22;5044989;28;20124;-72
2022/12/09 03:57:19;;;;;;;85.63;17.83;;;-1.40;99.90;;;-2.02;100.00;96566.59;5045732;28;20049;-72
2022/12/09 03:59:57;;;;;;;28.30;14.30;;;-1.50;99.90;;;-2.01;100.00;96568.28;5045148;28;20057;-72
2022/12/09 04:02:25;;;;;;;38.10;14.98;;;-1.50;99.90;;;-2.22;100.00;96566.78;5046012;28;20067;-72
2022/12/09 04:04:52;;;;;;;37.92;15.88;;;-1.60;99.90;;;-2.33;100.00;96560.94;5044038;28;20138;-72
2022/12/09 04:07:20;;;;;;;33.35;16.27;;;-1.60;99.90;;;-2.38;100.00;96560.16;5048128;28;20143;-72
2022/12/09 04:09:47;;;;;;;36.38;17.95;;;-1.70;99.90;;;-2.37;100.00;96554.22;5037872;28;20115;-72
2022/12/09 04:12:14;;;;;;;32.40;16.48;;;-1.80;99.90;;;-2.40;100.00;96552.53;5047870;28;20049;-72
2022/12/09 04:14:41;;;;;;;31.85;14.90;;;-1.80;99.90;;;-2.52;100.00;96553.47;5042943;28;20199;-72
2022/12/09 04:17:10;;;;;;;27.63;14.13;;;-1.90;99.90;;;-2.55;100.00;96542.50;5043351;28;20479;-72
2022/12/09 04:19:37;;;;;;;28.55;13.20;;;-1.90;99.90;;;-2.57;100.00;96545.03;5043525;28;20041;-72
2022/12/09 04:22:04;;;;;;;24.30;12.73;;;-1.90;99.90;;;-2.57;100.00;96549.28;5045087;28;20541;-72
2022/12/09 04:24:31;;;;;;;20.60;11.10;;;-1.90;99.90;;;-2.61;100.00;96545.06;5037942;28;20053;-72
2022/12/09 04:26:58;;;;;;;22.77;12.80;;;-1.90;99.90;;;-2.57;100.00;96542.50;5044449;28;20049;-72
2022/12/09 04:29:25;;;;;;;18.75;10.13;;;-2.00;99.90;;;-2.53;100.00;96541.63;5043498;28;20048;-73
2022/12/09 04:31:52;;;;;;;19.60;10.95;;;-2.00;99.90;;;-2.58;100.00;96542.50;5045228;28;20053;-72
2022/12/09 04:34:20;;;;;;;20.77;10.60;;;-2.00;99.90;;;-2.60;100.00;96540.00;5060527;28;20045;-73
2022/12/09 04:36:48;;;;;;;21.63;11.25;;;-2.00;99.90;;;-2.66;100.00;96531.56;5046416;28;20176;-72
2022/12/09 04:39:15;;;;;;;25.27;12.82;;;-2.10;99.90;;;-2.65;100.00;96528.16;5046600;28;20048;-72
2022/12/09 04:41:42;;;;;;;21.90;10.60;;;-2.10;99.90;;;-2.65;100.00;96523.09;5044873;28;20040;-73
2022/12/09 04:44:09;;;;;;;24.63;12.13;;;-2.10;99.90;;;-2.65;100.00;96525.63;5041802;28;20182;-72
2022/12/09 04:46:36;;;;;;;23.08;11.75;;;-2.10;99.90;;;-2.81;100.00;96520.66;5045427;28;20096;-72
2022/12/09 04:49:03;;;;;;;25.77;11.45;;;-2.20;99.90;;;-2.82;100.00;96520.69;5044951;28;20137;-72
2022/12/09 04:51:30;;;;;;;20.02;10.43;;;-2.20;99.90;;;-2.84;100.00;96519.84;5043616;28;20080;-72
2022/12/09 04:54:06;;;;;;;20.45;10.18;;;-2.20;99.90;;;-2.83;100.00;96509.69;5044794;28;20053;-71
2022/12/09 04:56:33;;;;;;;27.20;11.88;;;-2.30;99.90;;;-2.76;100.00;96508.78;5057682;28;20061;-71
2022/12/09 04:59:00;;;;;;;24.73;11.13;;;-2.10;99.90;;;-2.77;100.00;96508.78;5045474;28;20140;-72
2022/12/09 05:01:27;;;;;;;26.83;10.90;;;-2.10;99.90;;;-2.67;100.00;96515.47;5043284;28;20047;-72
2022/12/09 05:03:58;;;;;;;30.45;13.40;;;-2.10;99.90;;;-2.61;100.00;96505.28;5043693;28;20478;-72
2022/12/09 05:06:25;;;;;;;22.92;10.57;;;-2.00;99.90;;;-2.70;100.00;96509.59;5043661;28;20049;-72
2022/12/09 05:08:53;;;;;;;22.98;11.10;;;-2.00;99.90;;;-2.72;100.00;96509.59;5043581;28;20057;-72
2022/12/09 05:11:22;;;;;;;26.65;11.20;;;-2.00;99.90;;;-2.62;100.00;96498.50;5042525;28;20068;-72
2022/12/09 05:13:52;;;;;;;27.20;11.00;;;-2.00;99.90;;;-2.72;100.00;96494.34;5043697;28;20763;-72
2022/12/09 05:16:19;;;;;;;28.15;12.20;;;-2.10;99.90;;;-2.68;100.00;96501.09;5044061;28;20087;-72
2022/12/09 05:18:48;;;;;;;33.00;13.80;;;-2.00;99.90;;;-2.50;100.00;96501.81;5042592;28;20049;-72
2022/12/09 05:21:19;;;;;;;29.40;12.82;;;-2.00;99.90;;;-2.59;100.00;96495.94;5044187;28;20041;-72
2022/12/09 05:23:47;;;;;;;28.80;12.80;;;-1.90;99.90;;;-2.53;100.00;96500.97;5057939;28;20053;-72
2022/12/09 05:26:20;;;;;;;29.25;13.55;;;-1.90;99.90;;;-2.47;100.00;96499.22;5042391;28;20045;-72
2022/12/09 05:28:48;;;;;;;31.88;15.52;;;-1.90;99.90;;;-2.54;100.00;96493.34;5039937;28;20407;-72
2022/12/09 05:31:20;;;;;;;34.15;14.40;;;-1.90;99.90;;;-2.46;100.00;96491.59;5042298;28;20048;-72
2022/12/09 05:33:49;;;;;;;29.42;13.10;;;-1.90;99.90;;;-2.46;100.00;96490.75;5042875;28;20112;-72
2022/12/09 05:36:22;;;;;;;26.55;12.90;;;-1.90;99.90;;;-2.45;100.00;96493.28;5044810;28;20056;-72
2022/12/09 05:38:51;;;;;;;27.75;12.30;;;-1.80;99.90;;;-2.56;100.00;96500.97;5044397;28;20049;-72
2022/12/09 05:41:19;;;;;;;33.47;13.80;;;-1.90;99.90;;;-2.56;100.00;96495.91;5043263;28;20137;-72
2022/12/09 05:43:46;;;;;;;30.35;13.65;;;-1.90;99.90;;;-2.59;100.00;96495.94;5043149;28;20117;-72
2022/12/09 05:46:14;;;;;;;24.50;11.82;;;-1.90;99.90;;;-2.60;100.00;96490.88;5040878;28;20037;-72
2022/12/09 05:48:42;;;;;;;29.98;13.02;;;-1.90;99.90;;;-2.65;100.00;96490.91;5039380;28;20041;-72
2022/12/09 05:51:24;;;;;;;28.45;11.27;;;-2.00;99.90;;;-2.68;100.00;96492.63;5041521;28;20570;-72
2022/12/09 05:53:53;;;;;;;35.13;13.23;;;-2.00;99.90;;;-2.77;100.00;96496.91;5043058;28;20049;-72
2022/12/09 05:56:23;;;;;;;31.48;12.40;;;-2.00;99.90;;;-2.77;100.00;96496.09;5045118;28;20077;-72
2022/12/09 05:58:51;;;;;;;28.52;11.18;;;-2.00;99.90;;;-2.64;100.00;96495.16;5039925;28;20450;-72
2022/12/09 06:01:19;;;;;;;31.42;13.27;;;-2.00;99.90;;;-2.70;100.00;96501.97;5041795;28;20053;-71
2022/12/09 06:03:49;;;;;;;28.45;12.88;;;-2.00;99.90;;;-2.74;100.00;96501.13;5043952;28;20053;-72
2022/12/09 06:06:21;;;;;;;32.47;11.60;;;-2.00;99.90;;;-2.71;100.00;96502.81;5045835;28;20056;-72
2022/12/09 06:08:48;;;;;;;29.83;10.20;;;-2.00;99.90;;;-2.65;100.00;96502.75;5044699;28;20180;-72
2022/12/09 06:11:20;;;;;;;27.25;11.82;;;-2.00;99.90;;;-2.68;100.00;96501.09;5043903;28;20045;-72
2022/12/09 06:13:49;;;;;;;29.63;12.68;;;-2.00;99.90;;;-2.69;100.00;96499.44;5043314;28;20122;-72
2022/12/09 06:16:19;;;;;;;33.08;12.43;;;-2.00;99.90;;;-2.79;100.00;96498.63;5045189;28;20102;-72
2022/12/09 06:18:48;;;;;;;30.05;11.63;;;-2.10;99.90;;;-2.81;100.00;96499.50;5042738;28;20049;-71
2022/12/09 06:21:17;;;;;;;30.77;12.02;;;-2.10;99.90;;;-2.82;100.00;96503.75;5045401;28;20510;-71
2022/12/09 06:23:45;;;;;;;30.73;13.00;;;-2.10;99.90;;;-2.73;100.00;96505.38;5045433;28;20053;-72
2022/12/09 06:26:25;;;;;;;32.90;13.25;;;-2.10;99.90;;;-2.80;100.00;96498.66;5045560;28;20049;-71
2022/12/09 06:28:54;;;;;;;32.22;13.05;;;-2.10;99.90;;;-2.78;100.00;96497.78;5044828;28;20088;-72
2022/12/09 06:31:22;;;;;;;26.42;11.57;;;-2.10;99.90;;;-2.77;100.00;96496.09;5045557;28;20218;-72
2022/12/09 06:33:50;;;;;;;26.25;10.38;;;-2.10;99.90;;;-2.81;100.00;96500.34;5045894;28;20136;-72
2022/12/09 06:36:25;;;;;;;30.33;12.23;;;-2.10;99.90;;;-2.85;100.00;96492.75;5043260;28;20106;-72
2022/12/09 06:38:53;;;;;;;28.73;13.00;;;-2.10;99.90;;;-2.93;100.00;96492.81;5043657;28;20549;-72
2022/12/09 06:41:20;;;;;;;27.17;11.93;;;-2.20;99.90;;;-2.94;100.00;96478.44;5046052;28;20049;-71
2022/12/09 06:43:47;;;;;;;25.67;11.57;;;-2.20;99.90;;;-2.95;100.00;96482.66;5045786;28;20085;-71
2022/12/09 06:46:19;;;;;;;26.65;11.57;;;-2.20;99.90;;;-2.90;100.00;96485.16;5045348;28;20044;-72
2022/12/09 06:48:47;;;;;;;28.95;12.10;;;-2.20;99.90;;;-2.85;100.00;96485.13;5046288;28;20626;-73
2022/12/09 06:51:17;;;;;;;28.73;13.45;;;-2.20;99.90;;;-2.90;100.00;96486.88;5045899;28;20147;-72
2022/12/09 06:53:44;;;;;;;30.45;12.90;;;-2.20;99.90;;;-2.87;100.00;96484.28;5059172;28;20045;-72
2022/12/09 06:56:13;;;;;;;32.90;13.98;;;-2.20;99.90;;;-2.81;100.00;96480.03;5041092;28;20075;-72
2022/12/09 06:58:43;;;;;;;40.10;14.50;;;-2.20;99.90;;;-2.68;100.00;96485.03;5041266;28;20037;-72
2022/12/09 07:01:18;;;;;;;31.38;12.57;;;-2.30;99.90;;;-2.99;100.00;96481.03;5043643;28;20515;-72
2022/12/09 07:03:49;;;;;;;29.60;14.07;;;-2.30;99.90;;;-2.94;100.00;96488.59;5058709;28;20049;-72
2022/12/09 07:06:38;;;;;;;33.00;15.05;;;-2.20;99.90;;;-3.00;100.00;96486.09;5043979;28;20104;-72
2022/12/09 07:09:08;;;;;;;38.22;15.98;;;-2.30;99.90;;;-2.91;100.00;96477.59;5045506;28;20048;-72
2022/12/09 07:11:37;;;;;;;30.05;12.82;;;-2.20;99.90;;;-2.98;100.00;96485.22;5047984;28;20499;-72
2022/12/09 07:14:04;;;;;;;30.33;13.38;;;-2.20;99.90;;;-2.90;100.00;96486.88;5041591;28;20064;-72
2022/12/09 07:16:32;;;;;;;34.22;15.05;;;-2.20;99.90;;;-2.92;100.00;96481.78;5048010;28;20053;-72
2022/12/09 07:19:00;;;;;;;30.23;13.35;;;-2.20;99.90;;;-2.92;100.00;96479.25;5047787;28;20176;-73
2022/12/09 07:21:28;;;;;;;34.83;15.20;;;-2.20;99.90;;;-2.90;100.00;96480.09;5030940;28;20053;-71
2022/12/09 07:23:58;;;;;;;29.98;14.15;;;-2.20;99.90;;;-2.88;100.00;96483.47;5043397;28;20059;-72
2022/12/09 07:26:26;;;;;;;27.80;14.20;;;-2.20;99.90;;;-2.88;100.00;96483.47;5064606;28;20445;-72
2022/12/09 07:28:53;;;;;;;34.90;14.00;;;-2.10;99.90;;;-2.83;100.00;96480.88;5044693;28;20118;-71
2022/12/09 07:31:26;;;;;;;27.27;12.70;;;-2.10;99.90;;;-2.86;100.00;96481.75;5047571;28;20962;-71
2022/12/09 07:33:56;;;;;;;;;;;-2.10;99.90;;;-2.80;100.00;96479.19;5038717;28;20057;-71
2022/12/09 07:36:28;;;;;;;32.70;13.52;;;-2.00;99.90;;;-2.69;100.00;96483.31;5043264;28;19929;-71
2022/12/09 07:39:13;;;;;;;39.72;14.20;;;-2.00;99.90;;;-2.63;100.00;96480.72;5047824;28;20060;-71
2022/12/09 07:41:41;;;;;;;42.55;16.92;;;-1.90;99.90;;;-2.46;100.00;96475.50;5047241;28;20136;-71
2022/12/09 07:44:10;;;;;;;43.00;22.88;;;-1.90;99.90;;;-2.48;100.00;96477.22;5048354;28;20045;-71
2022/12/09 07:46:38;;;;;;;265.90;96.43;;;-1.80;99.90;;;-2.02;100.00;96485.25;5048362;28;20064;-71
2022/12/09 07:49:05;;;;;;;401.27;158.57;;;-1.80;99.90;;;-2.33;100.00;96484.69;5045387;28;20536;-71
2022/12/09 07:51:33;;;;;;;245.65;96.28;;;-1.70;99.90;;;-2.27;100.00;96483.81;5046777;28;20053;-70
2022/12/09 07:54:00;;;;;;;179.43;86.10;;;-1.60;99.90;;;-2.06;100.00;96480.19;5047246;28;20088;-71
2022/12/09 07:56:28;;;;;;;72.13;30.27;;;-1.50;99.90;;;-2.03;100.00;96488.66;5044101;28;20175;-71
2022/12/09 07:58:56;;;;;;;56.17;28.00;;;-1.50;99.90;;;-1.77;100.00;96483.25;5048851;28;20053;-72
2022/12/09 08:01:27;;;;;;;60.95;26.45;;;-1.40;99.90;;;-1.70;100.00;96486.59;5062618;28;20044;-72
2022/12/09 08:03:55;;;;;;;66.88;32.20;;;-1.30;99.90;;;-1.87;100.00;96485.94;5063485;28;20049;-73
2022/12/09 08:06:26;;;;;;;53.80;25.27;;;-1.20;99.90;;;-1.53;100.00;96486.38;5053859;28;20690;-73
2022/12/09 08:08:58;;;;;;;57.50;26.05;;;-1.10;99.90;;;-1.75;100.00;96486.63;5050669;28;20079;-73
2022/12/09 08:11:29;;;;;;;57.13;25.23;;;-1.00;99.90;;;-1.38;100.00;96487.88;5052178;28;20095;-71
2022/12/09 08:13:59;;;;;;;52.33;25.38;;;-1.00;99.90;;;-1.38;100.00;96491.28;5062191;28;20084;-72
2022/12/09 08:16:35;;;;;;;50.90;24.42;;;-0.90;99.90;;;-1.25;100.00;96481.78;5047131;28;20421;-72
2022/12/09 08:19:02;;;;;;;67.05;30.95;;;-0.90;99.90;;;-1.47;100.00;96479.50;5046325;28;20049;-72
2022/12/09 08:21:32;;;;;;;56.72;28.60;;;-0.80;99.90;;;-1.38;100.00;96478.53;5043674;28;20562;-73
2022/12/09 08:24:04;;;;;;;45.58;24.75;;;-0.80;99.90;;;-1.54;100.00;96477.91;5043338;28;20071;-73
2022/12/09 08:26:33;;;;;;;42.67;23.10;;;-0.70;99.90;;;-1.49;100.00;96472.75;5062163;28;20044;-73
2022/12/09 08:29:00;;;;;;;41.90;23.08;;;-0.70;99.90;;;-1.52;100.00;96476.19;5044086;28;20053;-73
2022/12/09 08:31:28;;;;;;;55.40;25.00;;;-0.60;99.90;;;-1.38;100.00;96475.16;5045619;28;20064;-73
2022/12/09 08:33:57;;;;;;;55.83;28.27;;;-0.60;99.90;;;-1.30;100.00;96476.75;5046028;28;20057;-72
2022/12/09 08:36:26;;;;;;;57.72;28.17;;;-0.50;99.90;;;-1.19;100.00;96471.47;5047783;28;20128;-72
2022/12/09 08:38:57;;;;;;;46.85;24.45;;;-0.40;99.90;;;-1.19;100.00;96471.47;5044213;28;20132;-73
2022/12/09 08:41:34;;;;;;;56.75;27.08;;;-0.30;99.90;;;-1.15;100.00;96474.84;5042158;28;20068;-73
2022/12/09 08:44:13;;;;;;;52.90;25.88;;;-0.10;99.90;;;-1.05;100.00;96471.28;5043012;28;20079;-70
2022/12/09 08:46:44;;;;;;;59.28;28.00;;;-0.10;99.90;;;-0.99;100.00;96478.00;5037156;28;20041;-72
2022/12/09 08:49:16;;;;;;;61.08;29.77;;;0.00;99.90;;;-0.83;100.00;96468.44;5040588;28;20057;-72
2022/12/09 08:51:46;;;;;;;63.63;29.17;;;0.10;99.90;;;-0.84;100.00;96467.59;5046105;28;20887;-72
2022/12/09 08:54:13;;;;;;;43.00;24.40;;;0.10;99.90;;;-0.77;100.00;96465.81;5045553;28;20102;-72
2022/12/09 08:56:48;;;;;;;51.55;26.25;;;0.20;99.90;;;-0.64;100.00;96467.25;5044354;28;20053;-73
2022/12/09 08:59:17;;;;;;;52.90;24.95;;;0.30;99.90;;;-0.69;100.00;96469.06;5044738;28;20140;-72
2022/12/09 09:01:44;;;;;;;59.55;27.55;;;0.40;99.90;;;-0.52;100.00;96468.78;5045471;28;20075;-72
2022/12/09 09:04:16;;;;;;;71.88;30.25;;;0.50;99.90;;;-0.58;100.00;96467.16;5045687;28;20076;-72
2022/12/09 09:06:48;;;;;;;57.83;27.40;;;0.50;99.90;;;-0.53;100.00;96467.09;5043499;28;20053;-73
2022/12/09 09:09:16;;;;;;;64.30;29.30;;;0.50;99.90;;;-0.47;100.00;96467.84;5057518;28;20428;-73
2022/12/09 09:11:44;;;;;;;69.28;30.48;;;0.50;99.90;;;-0.54;100.00;96463.72;5042211;28;20049;-72
2022/12/09 09:14:13;;;;;;;57.75;26.48;;;0.50;99.90;;;-0.40;100.00;96468.56;5045010;28;20092;-72
2022/12/09 09:16:42;;;;;;;108.45;55.65;;;0.60;99.90;;;-0.33;100.00;96475.25;5042006;28;20140;-72
2022/12/09 09:19:20;;;;;;;177.10;88.93;;;0.70;99.90;;;-0.38;100.00;96459.19;5046465;28;20053;-72
2022/12/09 09:21:48;;;;;;;72.32;37.53;;;0.70;99.90;;;-0.45;100.00;96460.16;5043784;28;20053;-72
2022/12/09 09:24:18;;;;;;;81.20;37.88;;;0.80;99.90;;;-0.53;100.00;96455.19;5044557;28;20041;-72
2022/12/09 09:26:47;;;;;;;51.92;26.38;;;0.60;99.90;;;-0.43;100.00;96456.72;5044369;28;20095;-72
2022/12/09 09:29:18;;;;;;;49.47;26.65;;;0.70;99.90;;;-0.37;100.00;96455.75;5044473;28;20067;-72
2022/12/09 09:31:48;;;;;;;50.20;23.27;;;0.80;99.90;;;-0.44;100.00;96459.28;5039059;28;20114;-72
2022/12/09 09:34:16;;;;;;;65.75;30.83;;;0.80;99.90;;;-0.29;100.00;96455.66;5044743;28;20049;-72
2022/12/09 09:36:43;;;;;;;55.10;25.20;;;0.80;99.90;;;-0.30;100.00;96454.78;5044876;28;20053;-73
2022/12/09 09:39:11;;;;;;;54.33;24.45;;;0.90;99.90;;;-0.42;100.00;96449.91;5040476;28;20505;-72
2022/12/09 09:41:43;;;;;;;52.08;25.45;;;0.80;99.90;;;-0.47;100.00;96450.00;5044456;28;20044;-72
2022/12/09 09:44:16;;;;;;;45.47;23.00;;;0.90;99.90;;;-0.24;100.00;96456.41;5045433;28;20051;-72
2022/12/09 09:46:47;;;;;;;48.72;23.42;;;1.00;99.90;;;-0.09;100.00;96453.56;5044800;28;20140;-71
2022/12/09 09:49:19;;;;;;;55.10;26.95;;;1.10;99.90;;;-0.17;100.00;96452.88;5041941;28;20091;-72
2022/12/09 09:51:47;;;;;;;47.30;22.77;;;1.20;99.90;;;-0.12;100.00;96450.22;5043059;28;20140;-72
2022/12/09 09:54:14;;;;;;;45.33;23.05;;;1.20;99.90;;;-0.29;100.00;96459.03;5042322;28;20056;-73
2022/12/09 09:57:18;;;;;;;40.83;21.52;;;1.20;99.90;;;-0.24;100.00;96451.28;5040421;28;20041;-72
2022/12/09 09:59:48;;;;;;;;;;;1.20;99.90;;;-0.33;100.00;96448.91;5007239;28;20064;-72
2022/12/09 10:02:22;;;;;;;36.85;20.58;;;1.20;99.90;;;-0.24;100.00;96447.03;5042397;28;20380;-72
2022/12/09 10:05:20;;;;;;;52.05;24.95;;;1.20;99.90;;;0.09;100.00;96441.31;5040536;28;20759;-73
2022/12/09 10:07:56;;;;;;;49.63;23.27;;;1.30;99.90;;;0.08;100.00;96449.84;5043912;28;20070;-72
2022/12/09 10:10:53;;;;;;;35.63;21.08;;;1.40;99.90;;;-0.11;100.00;96440.00;5039730;28;20593;-72
2022/12/09 10:13:43;;;;;;;43.30;23.00;;;1.60;99.90;;;0.15;100.00;96439.50;5037051;28;20045;-72
2022/12/09 10:16:18;;;;;;;41.75;22.48;;;1.60;99.90;;;0.25;100.00;96436.75;5040247;28;20528;-72
2022/12/09 10:19:07;;;;;;;51.55;26.55;;;1.70;99.90;;;0.23;100.00;96434.25;5055872;28;20057;-72
2022/12/09 10:21:41;;;;;;;42.88;23.23;;;1.80;99.90;;;0.57;100.00;96429.28;5042765;28;20152;-72